Current Conditions
Partly Cloudy
Conditions



Pressure
29.91 (inHG) - 1012.92 (mb)
Visibility

10.0 (miles) - 16.1 (km)
   Temperature
75  °F
24°C
63  °F
Dewpoint
65  %
 Humidity
   Wind Speed
6  mph
5  kts
10  km/h
2.7  m/s
   Wind Direction
 230°
South West
   Airport Data
KSBA
Location Santa Barbara Municipal Airport 6 mi (9.65 km)
Metar :KSBA 261953Z 23005KT 10SM FEW060 24/17 A2991 RMK AO2 SLP128 T02390167 $
Mon 26th September 12:53 pm
   Raw Metar Info
Raw METAR is the most common format in the world for the transmission of observational weather data. It is highly standardized through the International Civil Aviation Organization (ICAO), which allows it to be understood throughout most of the world.
   API Info
Data Provided by
https://www.checkwx.com/weather/KSBA
   © Info
CSS/SVG/PHP scripts were developed by weather34.com for use in the weather34 template © 2015-2022

Guide Info provided by Metar-Wikipedia